Time;durP1;ratioP1;P1;durP2;ratioP2;P2;SDS_P1;SDS_P2;PMS_P1;PMS_P2;Temp;Humidity;BMP_temperature;BMP_pressure;BME280_temperature;BME280_humidity;BME280_pressure;Samples;Min_cycle;Max_cycle;Signal;HPM_P1;HPM_P2
2021/06/16 00:00:41;;;;;;;6.75;2.80;;;16.20;89.50;;;;;;5043404;28;20107;-83
2021/06/16 00:03:07;;;;;;;5.32;3.13;;;16.10;88.80;;;;;;5056373;28;20028;-84
2021/06/16 00:05:32;;;;;;;6.35;3.42;;;16.10;88.40;;;;;;5051813;28;20021;-83
2021/06/16 00:07:58;;;;;;;6.65;3.42;;;16.10;90.00;;;;;;5048166;28;20466;-83
2021/06/16 00:10:28;;;;;;;6.15;2.83;;;16.10;89.90;;;;;;5028349;28;20037;-83
2021/06/16 00:12:54;;;;;;;5.15;2.97;;;16.00;88.80;;;;;;5043105;28;20017;-84
2021/06/16 00:15:24;;;;;;;11.93;3.10;;;15.90;89.70;;;;;;5070153;28;20047;-84
2021/06/16 00:17:49;;;;;;;9.93;3.20;;;15.90;89.10;;;;;;5068015;28;20279;-83
2021/06/16 00:20:15;;;;;;;5.50;3.10;;;15.90;89.70;;;;;;5039928;28;20096;-84
2021/06/16 00:22:41;;;;;;;4.90;2.97;;;15.80;89.10;;;;;;5066855;28;20062;-83
2021/06/16 00:25:07;;;;;;;5.90;3.13;;;15.80;90.20;;;;;;5052497;28;20113;-84
2021/06/16 00:27:33;;;;;;;5.57;3.10;;;15.80;90.20;;;;;;5050197;28;20481;-84
2021/06/16 00:29:58;;;;;;;8.07;3.33;;;15.80;90.60;;;;;;5062223;28;20092;-84
2021/06/16 00:32:24;;;;;;;6.03;3.80;;;15.80;90.70;;;;;;5051489;28;20037;-84
2021/06/16 00:34:49;;;;;;;8.48;3.45;;;15.70;90.50;;;;;;5051855;28;20036;-83
2021/06/16 00:37:15;;;;;;;4.63;2.95;;;15.80;90.30;;;;;;5049896;28;20540;-83
2021/06/16 00:39:41;;;;;;;4.95;3.00;;;15.80;90.20;;;;;;5051416;28;20016;-84
2021/06/16 00:42:07;;;;;;;8.00;3.30;;;15.80;90.00;;;;;;5065959;28;20029;-83
2021/06/16 00:44:32;;;;;;;8.02;3.45;;;15.70;90.20;;;;;;5060196;28;20067;-83
2021/06/16 00:46:58;;;;;;;5.00;3.10;;;15.70;90.80;;;;;;5048375;28;20056;-83
2021/06/16 00:49:24;;;;;;;5.68;3.03;;;15.60;90.10;;;;;;5059149;28;20096;-83
2021/06/16 00:51:49;;;;;;;5.70;3.28;;;15.60;90.10;;;;;;5029072;28;20033;-83
2021/06/16 00:54:15;;;;;;;8.27;3.10;;;15.60;91.00;;;;;;5028977;28;20028;-83
2021/06/16 00:56:42;;;;;;;8.20;2.95;;;16.00;90.50;;;;;;5050343;28;20039;-83
2021/06/16 00:59:08;;;;;;;6.32;3.35;;;15.50;89.70;;;;;;5056651;28;20028;-83
2021/06/16 01:01:33;;;;;;;7.55;3.63;;;15.60;88.30;;;;;;5048198;28;20794;-83
2021/06/16 01:04:08;;;;;;;4.15;3.00;;;15.50;90.10;;;;;;5046220;28;20182;-83
2021/06/16 01:06:49;;;;;;;5.88;3.45;;;15.50;88.20;;;;;;5046097;28;20738;-83
2021/06/16 01:09:27;;;;;;;8.60;3.25;;;15.40;88.70;;;;;;5054540;28;20036;-83
2021/06/16 01:12:03;;;;;;;6.70;3.70;;;15.40;89.30;;;;;;5061740;28;20093;-83
2021/06/16 01:14:36;;;;;;;5.88;3.47;;;15.40;89.40;;;;;;5059804;28;20021;-83
2021/06/16 01:17:03;;;;;;;8.45;3.30;;;15.40;90.30;;;;;;5035918;28;20036;-83
2021/06/16 01:19:53;;;;;;;5.00;3.10;;;15.40;90.40;;;;;;5037767;28;20397;-83
2021/06/16 01:22:23;;;;;;;6.00;4.00;;;15.30;90.30;;;;;;5056748;28;20021;-83
2021/06/16 01:24:51;;;;;;;6.28;3.10;;;15.30;90.80;;;;;;5041582;28;20589;-83
2021/06/16 01:27:18;;;;;;;6.18;3.30;;;15.30;90.10;;;;;;5048866;28;20051;-83
2021/06/16 01:29:44;;;;;;;7.53;2.95;;;15.30;90.30;;;;;;5042878;28;20043;-83
2021/06/16 01:32:10;;;;;;;6.53;3.25;;;15.30;90.00;;;;;;5051049;28;20059;-83
2021/06/16 01:34:35;;;;;;;10.60;3.80;;;15.30;90.70;;;;;;5049943;28;20047;-84
2021/06/16 01:37:01;;;;;;;6.40;3.10;;;15.30;90.40;;;;;;5048462;28;20028;-83
2021/06/16 01:39:31;;;;;;;8.98;3.60;;;15.20;89.80;;;;;;5048267;28;20052;-84
2021/06/16 01:42:01;;;;;;;6.00;2.80;;;15.10;89.70;;;;;;5047353;28;20033;-84
2021/06/16 01:44:27;;;;;;;12.65;4.00;;;15.10;90.00;;;;;;5046579;28;20032;-84
2021/06/16 01:46:53;;;;;;;8.77;4.03;;;15.10;90.10;;;;;;5047436;28;20028;-83
2021/06/16 01:49:21;;;;;;;6.43;3.40;;;15.10;90.10;;;;;;5058014;28;20040;-83
2021/06/16 01:51:47;;;;;;;5.78;3.38;;;15.10;90.60;;;;;;5021997;28;20392;-83
2021/06/16 01:54:12;;;;;;;7.93;3.83;;;15.10;89.90;;;;;;5029628;28;20024;-83
2021/06/16 01:56:38;;;;;;;4.13;3.20;;;15.20;90.40;;;;;;5047202;28;20028;-83
2021/06/16 01:59:03;;;;;;;5.38;3.47;;;15.20;90.40;;;;;;5045524;28;20025;-83
2021/06/16 02:01:29;;;;;;;5.00;3.47;;;15.20;90.20;;;;;;5059934;28;20108;-83
2021/06/16 02:03:55;;;;;;;5.57;3.47;;;15.30;90.70;;;;;;5043852;28;20036;-83
2021/06/16 02:06:27;;;;;;;8.90;3.70;;;15.30;91.00;;;;;;5046747;28;20055;-83
2021/06/16 02:08:52;;;;;;;7.35;3.45;;;15.40;90.00;;;;;;5058453;28;20104;-84
2021/06/16 02:11:19;;;;;;;7.07;3.08;;;15.70;89.00;;;;;;5050508;28;20139;-83
2021/06/16 02:13:50;;;;;;;4.25;3.13;;;15.50;90.10;;;;;;5046371;28;20079;-83
2021/06/16 02:16:19;;;;;;;6.05;3.03;;;15.50;88.30;;;;;;5045155;28;20116;-83
2021/06/16 02:18:46;;;;;;;7.22;3.47;;;15.50;88.20;;;;;;5044749;28;20028;-83
2021/06/16 02:21:12;;;;;;;6.65;3.22;;;15.40;87.90;;;;;;5038922;28;20115;-83
2021/06/16 02:23:38;;;;;;;7.18;3.92;;;15.40;90.00;;;;;;5047198;28;20054;-83
2021/06/16 02:26:03;;;;;;;10.10;3.70;;;15.30;89.40;;;;;;5046691;28;20492;-83
2021/06/16 02:28:29;;;;;;;7.53;3.53;;;15.30;90.00;;;;;;5045686;28;20115;-83
2021/06/16 02:30:55;;;;;;;8.95;4.07;;;15.30;90.50;;;;;;5055184;28;20673;-83
2021/06/16 02:33:21;;;;;;;7.90;3.65;;;15.20;90.60;;;;;;5036507;28;20039;-83
2021/06/16 02:35:47;;;;;;;7.20;3.70;;;15.20;90.50;;;;;;5038353;28;20025;-83
2021/06/16 02:38:13;;;;;;;8.05;3.78;;;15.20;91.10;;;;;;5054662;28;20020;-83
2021/06/16 02:40:40;;;;;;;7.72;3.70;;;15.10;90.40;;;;;;5055811;28;20017;-83
2021/06/16 02:43:05;;;;;;;5.65;3.60;;;15.10;91.40;;;;;;5044253;28;20021;-83
2021/06/16 02:45:31;;;;;;;6.40;3.40;;;15.00;91.30;;;;;;5045863;28;20029;-83
2021/06/16 02:47:57;;;;;;;5.45;3.60;;;15.00;90.90;;;;;;5055576;28;20061;-83
2021/06/16 02:50:25;;;;;;;5.97;3.92;;;15.00;91.30;;;;;;5053842;28;20024;-83
2021/06/16 02:52:51;;;;;;;8.93;3.80;;;14.90;91.40;;;;;;5025946;28;20514;-83
2021/06/16 02:55:17;;;;;;;9.60;4.40;;;14.90;91.30;;;;;;5046354;28;20016;-83
2021/06/16 02:57:43;;;;;;;10.35;4.13;;;14.90;91.60;;;;;;5057688;28;20037;-83
2021/06/16 03:00:11;;;;;;;6.55;4.20;;;14.90;91.50;;;;;;5038276;28;20020;-83
2021/06/16 03:02:36;;;;;;;7.15;4.07;;;14.90;91.70;;;;;;5039595;28;20109;-83
2021/06/16 03:05:03;;;;;;;5.65;3.95;;;14.90;91.70;;;;;;5057280;28;20117;-83
2021/06/16 03:07:28;;;;;;;10.85;4.68;;;14.90;91.80;;;;;;5047980;28;20055;-83
2021/06/16 03:09:54;;;;;;;8.45;4.28;;;15.00;91.30;;;;;;5029662;28;20025;-83
2021/06/16 03:12:21;;;;;;;9.68;4.10;;;15.00;91.40;;;;;;5045548;28;20067;-83
2021/06/16 03:14:47;;;;;;;10.82;4.30;;;15.00;92.00;;;;;;5059837;28;20510;-83
2021/06/16 03:17:13;;;;;;;7.47;4.35;;;15.00;91.50;;;;;;5029185;28;20032;-80
2021/06/16 03:19:38;;;;;;;5.35;3.80;;;14.90;91.00;;;;;;5057241;28;20051;-81
2021/06/16 03:22:04;;;;;;;7.65;4.07;;;14.90;91.40;;;;;;5058000;28;20030;-81
2021/06/16 03:24:30;;;;;;;9.20;4.55;;;14.90;91.20;;;;;;5041360;28;20487;-81
2021/06/16 03:26:56;;;;;;;10.32;3.95;;;15.00;91.80;;;;;;5032604;28;20098;-81
2021/06/16 03:29:21;;;;;;;9.95;4.70;;;15.00;91.00;;;;;;5046255;28;20084;-81
2021/06/16 03:31:47;;;;;;;7.85;4.25;;;15.10;91.60;;;;;;5027431;28;20111;-81
2021/06/16 03:34:13;;;;;;;8.55;4.00;;;15.20;91.20;;;;;;5045654;28;20032;-81
2021/06/16 03:36:39;;;;;;;8.73;4.35;;;15.20;91.10;;;;;;5057101;28;20036;-81
2021/06/16 03:39:07;;;;;;;7.28;4.32;;;15.30;91.30;;;;;;5058560;28;20025;-80
2021/06/16 03:41:35;;;;;;;8.02;3.70;;;15.50;91.50;;;;;;5029388;28;20035;-80
2021/06/16 03:44:00;;;;;;;7.10;4.40;;;15.50;90.90;;;;;;5061064;28;20036;-80
2021/06/16 03:46:26;;;;;;;9.85;4.05;;;15.40;91.10;;;;;;5059859;28;20036;-80
2021/06/16 03:48:52;;;;;;;9.45;4.07;;;15.50;91.10;;;;;;5058002;28;20758;-81
2021/06/16 03:51:18;;;;;;;7.88;4.53;;;15.60;89.80;;;;;;5059927;28;20029;-81
2021/06/16 03:53:44;;;;;;;7.57;4.95;;;15.80;90.60;;;;;;5060572;28;20163;-81
2021/06/16 03:56:10;;;;;;;8.57;5.28;;;15.90;90.80;;;;;;5059170;28;20033;-81
2021/06/16 03:58:36;;;;;;;5.25;4.05;;;15.90;90.80;;;;;;5061619;28;20483;-80
2021/06/16 04:01:02;;;;;;;5.05;4.38;;;15.80;90.80;;;;;;5046395;28;20025;-81
2021/06/16 04:03:28;;;;;;;6.82;5.03;;;15.90;90.60;;;;;;5062828;28;20714;-81
2021/06/16 04:05:54;;;;;;;9.65;4.55;;;16.10;90.10;;;;;;5058465;28;20033;-81
2021/06/16 04:08:19;;;;;;;8.50;4.47;;;16.10;87.30;;;;;;5049935;28;20029;-81
2021/06/16 04:10:45;;;;;;;6.57;4.47;;;16.30;88.20;;;;;;5059117;28;20036;-81
2021/06/16 04:13:11;;;;;;;9.85;5.10;;;16.40;86.80;;;;;;5054014;28;20177;-81
2021/06/16 04:15:37;;;;;;;7.93;4.22;;;17.10;89.40;;;;;;5061129;28;20099;-80
2021/06/16 04:18:03;;;;;;;6.10;4.55;;;16.50;89.20;;;;;;5056562;28;20091;-81
2021/06/16 04:20:29;;;;;;;7.05;4.63;;;16.50;88.90;;;;;;5039180;28;20104;-80
2021/06/16 04:22:55;;;;;;;7.75;4.82;;;16.60;90.40;;;;;;5061119;28;20024;-80
2021/06/16 04:25:23;;;;;;;7.70;4.28;;;16.70;90.10;;;;;;5053277;28;20025;-80
2021/06/16 04:27:49;;;;;;;8.85;4.35;;;16.90;87.80;;;;;;5059544;28;20471;-80
2021/06/16 04:30:17;;;;;;;7.85;4.15;;;17.00;84.70;;;;;;5059584;28;20029;-80
2021/06/16 04:32:42;;;;;;;8.45;4.20;;;17.10;85.10;;;;;;5048146;28;20037;-80
2021/06/16 04:35:09;;;;;;;8.50;4.20;;;17.20;84.60;;;;;;5047132;28;20040;-80
2021/06/16 04:37:35;;;;;;;6.72;4.60;;;17.50;81.70;;;;;;5072769;28;20323;-77
2021/06/16 04:40:00;;;;;;;5.93;4.28;;;17.90;85.40;;;;;;5055494;28;20029;-77
2021/06/16 04:42:26;;;;;;;9.23;4.68;;;18.00;79.90;;;;;;5045942;28;20036;-76
2021/06/16 04:44:52;;;;;;;10.98;4.70;;;18.20;85.00;;;;;;5054632;28;20530;-77
2021/06/16 04:47:17;;;;;;;9.88;4.50;;;18.30;84.50;;;;;;5069805;28;20032;-78
2021/06/16 04:49:44;;;;;;;10.13;4.75;;;18.10;84.70;;;;;;5056598;28;20029;-78
2021/06/16 04:52:10;;;;;;;7.93;4.32;;;18.50;80.40;;;;;;5057681;28;20082;-78
2021/06/16 04:54:36;;;;;;;10.98;4.40;;;19.00;81.20;;;;;;5060052;28;20514;-78
2021/06/16 04:57:05;;;;;;;13.98;5.10;;;19.40;81.40;;;;;;5045947;28;20184;-77
2021/06/16 04:59:34;;;;;;;14.60;5.10;;;19.60;79.70;;;;;;5055986;28;20025;-77
2021/06/16 05:02:00;;;;;;;8.90;4.45;;;20.50;74.00;;;;;;5056769;28;20085;-76
2021/06/16 05:04:26;;;;;;;7.60;3.88;;;21.10;74.70;;;;;;5068996;28;20025;-76
2021/06/16 05:06:52;;;;;;;10.32;4.13;;;21.70;70.20;;;;;;5044379;28;20158;-76
2021/06/16 05:09:18;;;;;;;7.32;4.55;;;21.90;68.70;;;;;;5046811;28;20032;-76
2021/06/16 05:11:44;;;;;;;10.68;4.00;;;21.30;75.20;;;;;;5053482;28;20037;-75
2021/06/16 05:14:09;;;;;;;8.75;4.65;;;21.80;70.40;;;;;;5053981;28;20063;-75
2021/06/16 05:16:35;;;;;;;7.68;4.05;;;22.40;67.50;;;;;;5055172;28;20047;-75
2021/06/16 05:19:02;;;;;;;8.93;4.43;;;22.80;68.10;;;;;;5053717;28;20688;-75
2021/06/16 05:21:28;;;;;;;8.75;4.20;;;23.00;65.30;;;;;;5054115;28;20032;-75
2021/06/16 05:23:54;;;;;;;8.70;4.53;;;23.50;61.50;;;;;;5053153;28;20016;-75
2021/06/16 05:26:20;;;;;;;8.15;4.38;;;23.60;62.80;;;;;;5053849;28;20058;-75
2021/06/16 05:28:45;;;;;;;8.82;4.32;;;23.40;65.10;;;;;;5057268;28;20064;-75
2021/06/16 05:31:11;;;;;;;9.02;4.28;;;23.50;60.40;;;;;;5035592;28;20025;-75
2021/06/16 05:33:37;;;;;;;9.48;4.60;;;23.10;63.90;;;;;;5034874;28;20071;-75
2021/06/16 05:36:04;;;;;;;8.50;4.30;;;23.50;58.30;;;;;;5054843;28;20485;-75
2021/06/16 05:38:30;;;;;;;9.85;4.80;;;24.30;55.30;;;;;;5051125;28;20024;-75
2021/06/16 05:40:55;;;;;;;14.07;4.95;;;24.20;56.70;;;;;;5050397;28;20016;-75
2021/06/16 05:43:21;;;;;;;9.60;4.63;;;24.60;55.00;;;;;;5050862;28;20099;-75
2021/06/16 05:45:47;;;;;;;9.68;4.60;;;25.10;56.60;;;;;;5052457;28;20709;-75
2021/06/16 05:48:12;;;;;;;7.47;4.25;;;24.90;58.50;;;;;;5041200;28;20701;-76
2021/06/16 05:50:38;;;;;;;10.85;4.68;;;25.60;56.80;;;;;;5052270;28;20032;-75
2021/06/16 05:53:03;;;;;;;9.82;4.57;;;26.20;51.70;;;;;;5039613;28;20025;-77
2021/06/16 05:55:29;;;;;;;8.80;4.50;;;26.20;53.70;;;;;;5056868;28;20146;-76
2021/06/16 05:57:55;;;;;;;11.77;4.90;;;26.30;51.50;;;;;;5052951;28;20755;-77
2021/06/16 06:00:21;;;;;;;9.15;4.93;;;26.70;49.10;;;;;;5055350;28;20100;-77
2021/06/16 06:02:47;;;;;;;7.72;4.35;;;27.00;47.60;;;;;;5056833;28;20013;-77
2021/06/16 06:05:12;;;;;;;11.27;4.32;;;26.70;47.80;;;;;;5069419;28;20020;-76
2021/06/16 06:07:38;;;;;;;9.57;4.47;;;26.50;48.30;;;;;;5057304;28;20097;-77
2021/06/16 06:10:05;;;;;;;10.45;4.63;;;26.00;49.00;;;;;;5040241;28;20024;-76
2021/06/16 06:12:31;;;;;;;8.30;4.93;;;25.50;56.40;;;;;;5018901;28;20056;-77
2021/06/16 06:14:56;;;;;;;9.23;4.40;;;26.00;51.00;;;;;;5037183;28;20059;-76
2021/06/16 06:17:22;;;;;;;8.30;4.60;;;25.60;50.70;;;;;;5050234;28;20410;-77
2021/06/16 06:19:48;;;;;;;7.55;4.43;;;24.80;52.20;;;;;;5053783;28;20017;-76
2021/06/16 06:22:14;;;;;;;11.45;4.10;;;24.40;54.70;;;;;;5043296;28;20012;-76
2021/06/16 06:24:39;;;;;;;10.63;4.43;;;24.50;55.00;;;;;;5055915;28;20032;-77
2021/06/16 06:27:07;;;;;;;15.50;5.30;;;24.30;55.80;;;;;;5054293;28;20521;-81
2021/06/16 06:29:33;;;;;;;8.63;4.53;;;24.80;55.00;;;;;;5056153;28;20052;-81
2021/06/16 06:31:59;;;;;;;6.15;4.47;;;25.00;58.50;;;;;;5061789;28;20454;-82
2021/06/16 06:34:26;;;;;;;6.32;4.00;;;25.50;58.00;;;;;;5040645;28;20032;-82
2021/06/16 06:36:51;;;;;;;7.90;4.57;;;26.20;52.40;;;;;;5046444;28;20051;-82
2021/06/16 06:39:18;;;;;;;14.48;4.30;;;26.50;49.30;;;;;;5039132;28;20192;-82
2021/06/16 06:41:44;;;;;;;7.65;4.82;;;26.60;49.40;;;;;;5036716;28;20401;-82
2021/06/16 06:44:10;;;;;;;6.55;3.75;;;25.60;51.60;;;;;;5053918;28;20510;-82
2021/06/16 06:46:35;;;;;;;8.30;3.90;;;25.60;51.80;;;;;;5058377;28;20427;-78
2021/06/16 06:49:01;;;;;;;8.75;4.20;;;26.10;51.50;;;;;;5057800;28;20381;-78
2021/06/16 06:51:27;;;;;;;6.30;4.28;;;25.50;52.30;;;;;;5057238;28;20099;-76
2021/06/16 06:53:53;;;;;;;9.75;4.20;;;26.10;52.70;;;;;;5057061;28;20060;-75
2021/06/16 06:56:19;;;;;;;7.10;3.88;;;26.50;51.80;;;;;;5055709;28;20108;-76
2021/06/16 06:58:44;;;;;;;6.35;3.70;;;26.60;49.40;;;;;;5040054;28;20032;-76
2021/06/16 07:01:10;;;;;;;5.90;4.07;;;27.40;49.50;;;;;;5057751;28;20027;-77
2021/06/16 07:03:35;;;;;;;9.10;4.15;;;27.50;48.00;;;;;;5037863;28;20923;-76
2021/06/16 07:06:01;;;;;;;6.22;4.15;;;28.00;47.40;;;;;;5051031;28;20839;-75
2021/06/16 07:08:27;;;;;;;9.13;3.83;;;27.90;47.40;;;;;;5054755;28;20013;-76
2021/06/16 07:10:52;;;;;;;9.32;4.70;;;28.00;48.10;;;;;;5053135;28;20799;-76
2021/06/16 07:13:21;;;;;;;4.15;3.75;;;28.40;48.30;;;;;;5041729;28;20017;-76
2021/06/16 07:15:49;;;;;;;4.78;3.90;;;28.40;46.10;;;;;;5056638;28;20016;-77
2021/06/16 07:18:15;;;;;;;4.95;3.17;;;28.40;45.60;;;;;;5071760;28;20033;-76
2021/06/16 07:20:41;;;;;;;12.32;4.75;;;28.40;47.00;;;;;;5053409;28;20112;-75
2021/06/16 07:23:07;;;;;;;8.50;3.40;;;28.30;49.20;;;;;;5051003;28;20488;-77
2021/06/16 07:25:32;;;;;;;6.93;3.80;;;28.80;46.10;;;;;;5059161;28;20282;-76
2021/06/16 07:27:58;;;;;;;6.65;4.15;;;28.80;45.20;;;;;;5040040;28;20060;-76
2021/06/16 07:30:24;;;;;;;8.30;4.07;;;29.00;45.50;;;;;;5052697;28;20028;-76
2021/06/16 07:32:49;;;;;;;7.85;3.88;;;29.10;45.90;;;;;;5044043;28;20025;-76
2021/06/16 07:35:15;;;;;;;5.68;3.95;;;28.90;47.00;;;;;;5058020;28;20149;-76
2021/06/16 07:37:41;;;;;;;5.82;3.88;;;29.40;43.90;;;;;;5042810;28;20478;-77
2021/06/16 07:40:08;;;;;;;8.45;3.97;;;29.70;45.40;;;;;;5054710;28;20033;-77
2021/06/16 07:42:35;;;;;;;12.10;3.58;;;29.60;45.50;;;;;;5053069;28;20021;-76
2021/06/16 07:45:02;;;;;;;7.10;3.90;;;29.60;46.30;;;;;;5040777;28;20695;-75
2021/06/16 07:47:27;;;;;;;8.75;4.18;;;29.20;44.60;;;;;;5040641;28;20105;-76
2021/06/16 07:49:53;;;;;;;7.50;4.20;;;29.10;45.20;;;;;;5053862;28;20166;-76
2021/06/16 07:52:19;;;;;;;5.60;4.03;;;29.20;47.50;;;;;;5069337;28;20028;-76
2021/06/16 07:54:44;;;;;;;6.75;3.97;;;29.20;45.40;;;;;;5057698;28;20435;-76
2021/06/16 07:57:10;;;;;;;8.05;4.15;;;28.70;47.90;;;;;;5050933;28;20032;-76
2021/06/16 07:59:36;;;;;;;8.70;4.50;;;29.70;46.90;;;;;;5070071;28;20029;-81
2021/06/16 08:02:04;;;;;;;5.60;4.38;;;29.50;44.80;;;;;;5055600;28;21459;-82
2021/06/16 08:04:30;;;;;;;6.88;5.20;;;29.40;49.30;;;;;;5056260;28;20046;-82
2021/06/16 08:06:57;;;;;;;10.73;4.80;;;29.60;46.00;;;;;;5063148;28;20033;-82
2021/06/16 08:09:22;;;;;;;5.85;4.65;;;29.90;45.40;;;;;;5067481;28;20442;-81
2021/06/16 08:11:49;;;;;;;9.02;4.60;;;29.60;46.70;;;;;;5044963;28;20035;-81
2021/06/16 08:14:15;;;;;;;6.93;4.82;;;29.20;48.60;;;;;;5057978;28;20086;-81
2021/06/16 08:16:41;;;;;;;7.78;4.97;;;28.70;49.00;;;;;;5045490;28;20147;-83
2021/06/16 08:19:07;;;;;;;9.60;4.78;;;28.70;49.90;;;;;;5060617;28;20035;-81
2021/06/16 08:21:32;;;;;;;6.55;4.60;;;28.30;49.60;;;;;;5054766;28;20043;-80
2021/06/16 08:23:58;;;;;;;7.30;5.32;;;28.80;49.40;;;;;;5043034;28;20028;-81
2021/06/16 08:26:24;;;;;;;9.57;5.20;;;29.10;48.80;;;;;;5048988;28;20031;-81
2021/06/16 08:28:50;;;;;;;10.88;5.47;;;29.40;48.60;;;;;;5062283;28;20037;-79
2021/06/16 08:31:15;;;;;;;8.43;5.28;;;29.00;48.00;;;;;;5074199;28;20029;-81
2021/06/16 08:33:41;;;;;;;7.97;5.15;;;28.80;48.70;;;;;;5074096;28;20029;-81
2021/06/16 08:36:07;;;;;;;10.10;5.60;;;28.90;49.90;;;;;;5062476;28;20028;-81
2021/06/16 08:38:33;;;;;;;7.43;5.43;;;29.00;49.20;;;;;;5062602;28;20139;-81
2021/06/16 08:41:05;;;;;;;7.75;5.10;;;29.20;49.90;;;;;;5074873;28;20033;-81
2021/06/16 08:43:41;;;;;;;10.70;6.03;;;29.20;50.60;;;;;;5047810;28;20027;-81
2021/06/16 08:46:09;;;;;;;10.40;5.72;;;29.50;48.10;;;;;;5051658;28;20039;-82
2021/06/16 08:48:36;;;;;;;12.25;6.03;;;29.50;49.10;;;;;;5066037;28;20017;-81
2021/06/16 08:51:02;;;;;;;6.28;5.07;;;29.00;50.80;;;;;;5033407;28;20028;-82
2021/06/16 08:53:29;;;;;;;6.38;5.35;;;29.50;48.40;;;;;;5071964;28;20016;-81
2021/06/16 08:55:54;;;;;;;6.93;6.30;;;29.80;47.40;;;;;;5043170;28;20393;-83
2021/06/16 08:58:20;;;;;;;10.40;5.70;;;29.50;48.20;;;;;;5056949;28;20025;-82
2021/06/16 09:00:46;;;;;;;9.98;5.90;;;29.30;49.60;;;;;;5059013;28;20514;-82
2021/06/16 09:03:12;;;;;;;9.68;6.28;;;29.50;48.20;;;;;;5053930;28;20052;-81
2021/06/16 09:05:38;;;;;;;10.55;6.05;;;29.40;48.50;;;;;;5049483;28;20613;-82
2021/06/16 09:08:22;;;;;;;9.82;5.95;;;29.10;51.30;;;;;;5043413;28;20113;-80
2021/06/16 09:10:50;;;;;;;10.00;6.67;;;28.80;49.00;;;;;;5043650;28;20033;-80
2021/06/16 09:13:26;;;;;;;8.93;7.03;;;29.20;53.30;;;;;;5036798;28;20035;-80
2021/06/16 09:15:53;;;;;;;9.70;6.20;;;28.60;49.90;;;;;;5038346;28;20583;-80
2021/06/16 09:18:18;;;;;;;8.15;6.50;;;28.50;50.50;;;;;;5046158;28;20036;-81
2021/06/16 09:20:47;;;;;;;8.75;5.95;;;28.60;53.60;;;;;;5059166;28;20025;-80
2021/06/16 09:23:30;;;;;;;9.05;6.85;;;28.70;53.60;;;;;;5046029;28;20025;-80
2021/06/16 09:26:13;;;;;;;10.00;6.53;;;29.20;49.60;;;;;;5047609;28;20051;-80
2021/06/16 09:28:48;;;;;;;9.48;6.18;;;29.00;50.80;;;;;;5051216;28;20050;-81
2021/06/16 09:31:50;;;;;;;7.22;6.10;;;29.10;52.80;;;;;;5059495;28;20106;-79
2021/06/16 09:34:17;;;;;;;11.23;7.32;;;29.20;55.10;;;;;;5027481;28;20124;-80
2021/06/16 09:36:52;;;;;;;12.75;6.72;;;29.40;50.20;;;;;;5025280;28;20075;-81
2021/06/16 09:39:19;;;;;;;9.23;6.72;;;29.20;53.30;;;;;;5049256;28;20021;-81
2021/06/16 09:42:01;;;;;;;10.55;6.38;;;29.60;50.00;;;;;;5061597;28;20021;-81
2021/06/16 09:44:47;;;;;;;11.48;7.70;;;29.40;51.80;;;;;;5060870;28;20019;-81
2021/06/16 09:47:19;;;;;;;12.68;6.10;;;29.60;51.40;;;;;;5061491;28;20029;-81
2021/06/16 09:49:49;;;;;;;7.82;6.43;;;29.40;51.70;;;;;;5062053;28;20096;-82
2021/06/16 09:52:38;;;;;;;8.88;6.40;;;29.70;51.10;;;;;;5074734;28;20029;-81
2021/06/16 09:55:13;;;;;;;8.63;5.93;;;29.80;51.90;;;;;;5052853;28;20049;-81
2021/06/16 09:58:03;;;;;;;7.53;6.07;;;30.20;49.50;;;;;;5058604;28;20143;-81
2021/06/16 10:00:59;;;;;;;9.88;6.00;;;30.50;50.60;;;;;;5053240;28;20013;-79
2021/06/16 10:03:24;;;;;;;10.57;6.80;;;31.10;50.10;;;;;;5049783;28;20025;-79
2021/06/16 10:06:14;;;;;;;12.95;6.70;;;30.80;48.10;;;;;;5043279;28;20061;-82
2021/06/16 10:08:47;;;;;;;7.95;6.63;;;30.40;50.10;;;;;;5060939;28;20083;-81
2021/06/16 10:11:15;;;;;;;12.57;7.50;;;30.20;48.30;;;;;;5043977;28;20112;-82
2021/06/16 10:13:42;;;;;;;10.82;7.15;;;30.10;48.80;;;;;;5056569;28;20504;-81
2021/06/16 10:16:07;;;;;;;8.68;6.68;;;30.30;48.90;;;;;;5045865;28;20063;-81
2021/06/16 10:18:34;;;;;;;7.50;6.53;;;30.40;49.00;;;;;;5043119;28;20064;-80
2021/06/16 10:21:00;;;;;;;7.82;6.50;;;30.30;47.80;;;;;;5061733;28;20111;-81
2021/06/16 10:23:26;;;;;;;12.05;6.28;;;30.20;48.30;;;;;;5055354;28;20544;-79
2021/06/16 10:25:52;;;;;;;8.10;6.15;;;30.10;48.10;;;;;;5043759;28;20043;-81
2021/06/16 10:28:22;;;;;;;8.55;6.68;;;30.50;48.30;;;;;;5058030;28;20032;-81
2021/06/16 10:30:56;;;;;;;11.80;6.43;;;30.80;49.40;;;;;;5042482;28;20151;-81
2021/06/16 10:33:39;;;;;;;13.70;7.25;;;30.80;47.30;;;;;;5042733;28;20048;-81
2021/06/16 10:36:11;;;;;;;11.15;6.28;;;30.60;49.90;;;;;;5056326;28;20047;-81
2021/06/16 10:38:37;;;;;;;12.00;6.15;;;31.40;47.60;;;;;;5056620;28;20128;-81
2021/06/16 10:41:07;;;;;;;9.13;6.63;;;31.00;45.70;;;;;;5055941;28;20086;-80
2021/06/16 10:43:34;;;;;;;9.77;5.78;;;30.10;49.80;;;;;;5062681;28;20074;-80
2021/06/16 10:46:01;;;;;;;11.48;6.40;;;30.70;47.40;;;;;;5044828;28;20021;-80
2021/06/16 10:48:42;;;;;;;6.93;6.28;;;30.90;49.40;;;;;;5056368;28;20048;-79
2021/06/16 10:51:07;;;;;;;6.88;6.07;;;31.40;47.50;;;;;;5055982;28;20024;-79
2021/06/16 10:53:34;;;;;;;9.30;5.78;;;31.00;45.60;;;;;;5036833;28;20221;-81
2021/06/16 10:56:04;;;;;;;9.70;6.07;;;30.90;45.60;;;;;;5046263;28;20032;-80
2021/06/16 10:58:32;;;;;;;6.63;5.93;;;30.60;46.50;;;;;;5047253;28;20024;-81
2021/06/16 11:01:19;;;;;;;11.00;6.40;;;30.40;45.00;;;;;;5063105;28;20114;-80
2021/06/16 11:03:52;;;;;;;11.15;6.65;;;30.60;48.00;;;;;;5072363;28;20021;-80
2021/06/16 11:06:36;;;;;;;8.23;6.30;;;30.50;46.80;;;;;;5055479;28;20108;-81
2021/06/16 11:09:09;;;;;;;14.40;5.97;;;30.80;47.40;;;;;;5059939;28;20115;-82
2021/06/16 11:11:48;;;;;;;8.55;5.75;;;31.20;46.60;;;;;;5030227;28;20094;-82
2021/06/16 11:14:47;;;;;;;8.38;5.70;;;30.90;45.90;;;;;;5057338;28;20949;-83
2021/06/16 11:17:31;;;;;;;8.57;5.85;;;31.30;48.90;;;;;;5040811;28;20042;-80
2021/06/16 11:20:07;;;;;;;11.10;7.45;;;31.60;45.80;;;;;;5058092;28;20535;-82
2021/06/16 11:22:38;;;;;;;6.97;5.53;;;31.00;45.60;;;;;;5039033;28;21129;-82
2021/06/16 11:25:09;;;;;;;9.02;7.35;;;31.40;47.00;;;;;;5038009;28;20033;-81
2021/06/16 11:28:12;;;;;;;10.93;6.57;;;31.40;44.70;;;;;;5053390;28;20025;-79
2021/06/16 11:30:53;;;;;;;8.13;7.15;;;31.30;47.10;;;;;;5067277;28;20052;-79
2021/06/16 11:33:19;;;;;;;6.55;5.90;;;31.10;44.90;;;;;;5053499;28;20021;-78
2021/06/16 11:35:50;;;;;;;10.52;6.50;;;31.10;45.20;;;;;;5052691;28;20027;-79
2021/06/16 11:38:19;;;;;;;10.82;6.30;;;31.00;45.70;;;;;;5069904;28;20055;-84
2021/06/16 11:41:04;;;;;;;8.50;5.45;;;31.10;46.00;;;;;;5059737;28;20027;-81
2021/06/16 11:43:37;;;;;;;;;;;31.40;45.80;;;;;;5057312;28;20025;-82
2021/06/16 11:46:31;;;;;;;11.77;5.43;;;31.70;44.80;;;;;;5069001;28;19959;-82
2021/06/16 11:49:17;;;;;;;10.27;5.78;;;31.30;43.90;;;;;;5052316;28;20023;-82
2021/06/16 11:51:51;;;;;;;8.35;5.97;;;31.60;47.40;;;;;;5056694;28;20028;-82
2021/06/16 11:54:33;;;;;;;6.47;5.73;;;32.00;43.70;;;;;;5037803;28;20033;-81
2021/06/16 11:57:14;;;;;;;9.10;5.50;;;31.80;45.80;;;;;;5043863;28;20053;-83
2021/06/16 11:59:46;;;;;;;7.57;5.38;;;31.70;43.70;;;;;;5042432;28;20029;-86
2021/06/16 12:02:20;;;;;;;9.48;5.60;;;31.50;45.20;;;;;;5063105;28;20048;-85
2021/06/16 12:04:51;;;;;;;7.93;5.88;;;31.10;44.00;;;;;;5042521;28;20028;-85
2021/06/16 12:07:39;;;;;;;8.30;5.60;;;31.30;44.60;;;;;;5055862;28;20410;-85
2021/06/16 12:10:25;;;;;;;8.32;5.57;;;31.90;46.20;;;;;;5061419;28;20247;-85
2021/06/16 12:13:08;;;;;;;9.07;5.75;;;32.20;45.00;;;;;;5068016;28;20066;-85
2021/06/16 12:15:38;;;;;;;12.38;6.75;;;32.20;46.40;;;;;;5059228;28;20024;-84
2021/06/16 12:18:04;;;;;;;8.60;6.15;;;32.00;46.10;;;;;;5062317;28;20066;-85
2021/06/16 12:20:33;;;;;;;9.15;5.45;;;32.20;47.30;;;;;;5057965;28;20509;-84
2021/06/16 12:23:02;;;;;;;8.80;5.35;;;31.90;45.00;;;;;;5047451;28;20028;-84
2021/06/16 12:25:32;;;;;;;9.00;6.20;;;31.60;46.20;;;;;;5041040;28;20032;-84
2021/06/16 12:27:59;;;;;;;8.55;6.10;;;31.80;49.30;;;;;;5037960;28;20599;-85
2021/06/16 12:30:26;;;;;;;6.78;6.05;;;31.80;47.90;;;;;;5047403;28;20098;-84
2021/06/16 12:33:23;;;;;;;7.22;5.38;;;31.70;48.40;;;;;;5057676;28;20021;-85
2021/06/16 12:36:08;;;;;;;9.52;5.63;;;31.70;47.30;;;;;;5058990;28;20028;-83
2021/06/16 12:38:34;;;;;;;;;;;32.20;48.10;;;;;;5056818;28;20029;-82
2021/06/16 12:40:59;;;;;;;8.13;5.72;;;32.20;52.10;;;;;;5073354;28;19923;-83
2021/06/16 12:43:28;;;;;;;5.97;5.38;;;32.00;43.80;;;;;;5044465;28;20024;-83
2021/06/16 12:45:56;;;;;;;9.18;6.22;;;32.20;47.50;;;;;;5055537;28;20112;-80
2021/06/16 12:48:26;;;;;;;11.38;6.15;;;32.20;48.00;;;;;;5063125;28;20690;-76
2021/06/16 12:51:00;;;;;;;10.23;5.72;;;32.00;45.00;;;;;;5055961;28;20025;-74
2021/06/16 12:53:26;;;;;;;8.52;5.65;;;31.80;47.10;;;;;;5036627;28;20024;-74